Time;durP1;ratioP1;P1;durP2;ratioP2;P2;SDS_P1;SDS_P2;PMS_P1;PMS_P2;Temp;Humidity;BMP_temperature;BMP_pressure;BME280_temperature;BME280_humidity;BME280_pressure;Samples;Min_cycle;Max_cycle;Signal;HPM_P1;HPM_P2
2023/01/24 00:01:02;;;;;;;23.38;10.77;;;3.00;99.90;;;;;;4892185;29;20126;-80
2023/01/24 00:03:28;;;;;;;21.52;10.68;;;2.90;99.90;;;;;;4874231;29;20066;-80
2023/01/24 00:05:54;;;;;;;21.48;10.45;;;2.80;99.90;;;;;;4880633;29;20159;-80
2023/01/24 00:08:22;;;;;;;23.92;10.98;;;3.10;99.90;;;;;;4878501;29;20127;-80
2023/01/24 00:10:57;;;;;;;22.15;11.30;;;3.80;99.90;;;;;;4880234;29;20059;-80
2023/01/24 00:13:23;;;;;;;20.52;10.95;;;3.10;99.90;;;;;;4883247;29;20102;-80
2023/01/24 00:15:48;;;;;;;21.77;11.20;;;2.80;99.90;;;;;;4868192;29;20131;-80
2023/01/24 00:18:14;;;;;;;20.23;9.87;;;2.80;99.90;;;;;;4881136;29;20288;-80
2023/01/24 00:20:40;;;;;;;21.27;10.70;;;3.30;99.90;;;;;;4880722;29;20470;-80
2023/01/24 00:23:05;;;;;;;22.10;11.90;;;2.80;99.90;;;;;;4864592;29;20718;-80
2023/01/24 00:25:31;;;;;;;24.10;11.20;;;3.70;99.90;;;;;;4859896;29;20797;-80
2023/01/24 00:27:57;;;;;;;21.33;10.43;;;2.80;99.90;;;;;;4880907;29;20512;-80
2023/01/24 00:30:22;;;;;;;20.50;10.57;;;2.90;99.90;;;;;;4867975;29;20549;-80
2023/01/24 00:32:48;;;;;;;21.20;10.87;;;4.20;99.90;;;;;;4881819;29;20321;-80
2023/01/24 00:35:14;;;;;;;19.50;10.43;;;2.80;99.90;;;;;;4889498;29;20040;-80
2023/01/24 00:37:40;;;;;;;27.95;12.00;;;2.80;99.90;;;;;;4864271;29;20037;-80
2023/01/24 00:40:06;;;;;;;;;;;2.80;99.90;;;;;;4865086;29;20037;-80
2023/01/24 00:42:32;;;;;;;21.92;10.02;;;2.80;99.90;;;;;;4886454;29;19930;-80
2023/01/24 00:44:58;;;;;;;25.67;10.97;;;2.80;99.90;;;;;;4885947;29;20492;-80
2023/01/24 00:47:24;;;;;;;22.67;11.07;;;4.20;99.90;;;;;;4875920;29;20485;-80
2023/01/24 00:49:50;;;;;;;21.83;10.27;;;2.80;99.90;;;;;;4884300;29;20777;-80
2023/01/24 00:52:16;;;;;;;22.53;10.87;;;2.80;99.90;;;;;;4875998;29;20051;-80
2023/01/24 00:54:41;;;;;;;23.47;11.20;;;2.80;99.90;;;;;;4872994;29;20861;-80
2023/01/24 00:57:07;;;;;;;21.93;10.20;;;2.80;99.90;;;;;;4866027;29;20043;-80
2023/01/24 00:59:33;;;;;;;24.20;10.95;;;3.00;99.90;;;;;;4848916;29;20356;-80
2023/01/24 01:01:58;;;;;;;20.92;9.95;;;2.80;99.90;;;;;;4876747;29;20033;-80
2023/01/24 01:04:24;;;;;;;21.77;10.73;;;2.80;99.90;;;;;;4882429;29;20517;-80
2023/01/24 01:06:50;;;;;;;22.10;10.63;;;2.80;99.90;;;;;;4886624;29;20044;-80
2023/01/24 01:09:15;;;;;;;20.50;10.53;;;2.80;99.90;;;;;;4879078;29;20284;-79
2023/01/24 01:11:41;;;;;;;24.00;11.10;;;4.00;99.90;;;;;;4832069;29;20642;-79
2023/01/24 01:14:08;;;;;;;22.65;10.43;;;2.80;99.90;;;;;;4868326;29;20167;-80
2023/01/24 01:16:37;;;;;;;25.17;11.80;;;2.80;99.90;;;;;;4866097;29;20044;-80
2023/01/24 01:19:04;;;;;;;21.45;10.63;;;2.80;99.90;;;;;;4874231;29;20126;-80
2023/01/24 01:21:30;;;;;;;21.13;10.68;;;2.80;99.90;;;;;;4880531;29;20044;-80
2023/01/24 01:23:55;;;;;;;26.02;11.48;;;2.90;99.90;;;;;;4878861;29;20052;-80
2023/01/24 01:26:22;;;;;;;24.00;11.65;;;3.30;99.90;;;;;;4875768;29;20136;-80
2023/01/24 01:28:48;;;;;;;25.33;11.35;;;2.80;99.90;;;;;;4872316;29;20048;-80
2023/01/24 01:31:15;;;;;;;22.73;12.07;;;3.40;99.90;;;;;;4868975;29;20046;-80
2023/01/24 01:33:42;;;;;;;23.33;10.57;;;2.70;99.90;;;;;;4889096;29;20162;-80
2023/01/24 01:36:08;;;;;;;28.20;11.57;;;3.10;99.90;;;;;;4885814;29;20078;-81
2023/01/24 01:38:33;;;;;;;22.80;11.07;;;2.70;99.90;;;;;;4850617;29;20509;-81
2023/01/24 01:40:59;;;;;;;24.10;11.63;;;4.30;99.90;;;;;;4886318;29;20043;-80
2023/01/24 01:43:28;;;;;;;24.70;10.88;;;2.80;99.90;;;;;;4879411;29;20769;-80
2023/01/24 01:45:58;;;;;;;23.25;11.02;;;2.80;99.90;;;;;;4885290;29;20135;-81
2023/01/24 01:48:42;;;;;;;22.45;11.23;;;2.70;99.90;;;;;;4878921;29;20151;-81
2023/01/24 01:51:15;;;;;;;27.40;12.15;;;2.80;99.90;;;;;;4869121;29;20044;-80
2023/01/24 01:53:58;;;;;;;22.73;10.90;;;2.80;99.90;;;;;;4877760;29;20040;-80
2023/01/24 01:56:55;;;;;;;21.80;10.90;;;2.80;99.90;;;;;;4865124;29;20040;-80
2023/01/24 01:59:26;;;;;;;26.35;11.63;;;2.80;99.90;;;;;;4886226;29;20072;-80
2023/01/24 02:01:54;;;;;;;23.48;11.15;;;3.10;99.90;;;;;;4865385;29;20067;-80
2023/01/24 02:04:31;;;;;;;26.90;12.38;;;2.80;99.90;;;;;;4878813;29;20083;-80
2023/01/24 02:07:04;;;;;;;25.40;11.43;;;3.10;99.90;;;;;;4872291;29;20104;-80
2023/01/24 02:09:34;;;;;;;24.52;12.23;;;2.80;99.90;;;;;;4885785;29;20078;-80
2023/01/24 02:12:04;;;;;;;25.13;11.52;;;3.50;99.90;;;;;;4889677;29;20041;-81
2023/01/24 02:17:18;;;;;;;26.95;11.95;;;2.70;99.90;;;;;;4866896;29;20131;-79
2023/01/24 02:20:09;;;;;;;27.40;12.02;;;3.80;99.90;;;;;;4865796;29;20071;-79
2023/01/24 02:22:37;;;;;;;25.60;11.68;;;2.70;99.90;;;;;;4887692;29;20048;-79
2023/01/24 02:25:29;;;;;;;26.17;12.25;;;2.70;99.90;;;;;;4889065;29;20051;-80
2023/01/24 02:27:55;;;;;;;28.20;12.45;;;2.70;99.90;;;;;;4896050;29;20409;-80
2023/01/24 02:30:21;;;;;;;26.33;12.68;;;2.70;99.90;;;;;;4865169;29;20044;-80
2023/01/24 02:32:47;;;;;;;28.13;12.15;;;4.10;99.90;;;;;;4862552;29;20041;-80
2023/01/24 02:35:42;;;;;;;25.43;12.00;;;3.60;99.90;;;;;;4885635;29;20493;-80
2023/01/24 02:38:26;;;;;;;26.52;12.13;;;3.70;99.90;;;;;;4852388;29;20289;-80
2023/01/24 02:40:56;;;;;;;27.35;12.23;;;2.70;99.90;;;;;;4873245;29;20041;-80
2023/01/24 02:43:25;;;;;;;28.13;12.70;;;3.00;99.90;;;;;;4885774;29;20040;-80
2023/01/24 02:45:51;;;;;;;29.77;12.40;;;2.80;99.90;;;;;;4896355;29;20040;-80
2023/01/24 02:48:17;;;;;;;28.02;12.45;;;3.00;99.90;;;;;;4882506;29;20080;-80
2023/01/24 02:53:29;;;;;;;29.50;12.48;;;2.90;99.90;;;;;;4879016;29;20682;-80
2023/01/24 02:58:45;;;;;;;27.58;12.05;;;2.80;99.90;;;;;;4895987;29;20044;-80
2023/01/24 03:01:12;;;;;;;24.50;11.63;;;3.10;99.90;;;;;;4875982;29;20485;-80
2023/01/24 03:03:37;;;;;;;;;;;2.80;99.90;;;;;;4871541;29;20501;-80
2023/01/24 03:06:03;;;;;;;24.90;11.15;;;2.80;99.90;;;;;;4880555;29;20022;-80
2023/01/24 03:08:33;;;;;;;23.27;11.70;;;2.70;99.90;;;;;;4868011;29;20405;-81
2023/01/24 03:10:59;;;;;;;27.48;12.45;;;2.80;99.90;;;;;;4880091;29;20033;-80
2023/01/24 03:35:23;;;;;;;22.10;10.18;;;2.80;99.90;;;;;;4880900;29;20045;-80
2023/01/24 03:40:34;;;;;;;18.27;8.90;;;2.80;99.90;;;;;;4891230;29;20052;-81
2023/01/24 03:43:00;;;;;;;18.00;8.98;;;2.80;99.90;;;;;;4870869;29;20045;-80
2023/01/24 03:45:27;;;;;;;;;;;2.90;99.90;;;;;;4889899;29;20146;-81
2023/01/24 03:47:56;;;;;;;18.30;9.23;;;4.40;99.90;;;;;;4889083;29;19941;-80
2023/01/24 03:53:08;;;;;;;19.17;9.43;;;3.00;99.90;;;;;;4885707;29;20516;-80
2023/01/24 03:55:34;;;;;;;19.10;9.40;;;2.80;99.90;;;;;;4875835;29;20413;-80
2023/01/24 03:58:00;;;;;;;21.63;10.63;;;2.90;99.90;;;;;;4881054;29;20040;-81
2023/01/24 04:00:27;;;;;;;22.75;9.88;;;4.20;99.90;;;;;;4864878;29;20036;-81
2023/01/24 04:02:53;;;;;;;;;;;4.10;99.90;;;;;;4882072;29;20068;-81
2023/01/24 04:05:20;;;;;;;22.73;10.32;;;3.50;99.90;;;;;;4872105;29;20022;-81
2023/01/24 04:07:46;;;;;;;20.85;9.65;;;3.90;99.90;;;;;;4898473;29;20178;-81
2023/01/24 04:10:13;;;;;;;18.73;9.55;;;3.20;99.90;;;;;;4861987;29;20241;-81
2023/01/24 04:12:43;;;;;;;20.63;9.60;;;2.90;99.90;;;;;;4868044;29;20047;-79
2023/01/24 04:15:12;;;;;;;18.80;8.70;;;2.80;99.90;;;;;;4883579;29;20104;-81
2023/01/24 04:17:38;;;;;;;19.65;9.48;;;2.80;99.90;;;;;;4885620;29;20033;-79
2023/01/24 04:20:04;;;;;;;16.57;8.67;;;2.80;99.90;;;;;;4881757;29;20060;-81
2023/01/24 04:22:30;;;;;;;20.23;9.40;;;2.80;99.90;;;;;;4898710;29;20844;-79
2023/01/24 04:24:56;;;;;;;21.33;9.98;;;2.90;99.90;;;;;;4882790;29;20040;-79
2023/01/24 04:27:22;;;;;;;20.30;9.30;;;4.60;99.90;;;;;;4875789;29;20071;-80
2023/01/24 04:29:47;;;;;;;19.85;9.85;;;2.80;99.90;;;;;;4866638;29;20285;-80
2023/01/24 04:32:13;;;;;;;19.23;9.38;;;3.20;99.90;;;;;;4832442;29;20097;-80
2023/01/24 04:34:39;;;;;;;19.13;9.88;;;4.00;99.90;;;;;;4893625;29;20066;-81
2023/01/24 04:37:06;;;;;;;18.25;9.00;;;4.30;99.90;;;;;;4838160;29;20498;-80
2023/01/24 04:39:31;;;;;;;17.45;9.48;;;2.90;99.90;;;;;;4886625;29;20071;-80
2023/01/24 04:41:57;;;;;;;17.90;8.82;;;2.90;99.90;;;;;;4873299;29;20052;-80
2023/01/24 04:44:23;;;;;;;16.45;8.52;;;3.10;99.90;;;;;;4848858;29;20049;-80
2023/01/24 04:46:49;;;;;;;17.55;8.75;;;3.90;99.90;;;;;;4879922;29;20040;-80
2023/01/24 04:49:15;;;;;;;17.98;9.13;;;2.90;99.90;;;;;;4886842;29;20037;-80
2023/01/24 04:51:43;;;;;;;18.90;8.98;;;3.20;99.90;;;;;;4875056;29;20096;-80
2023/01/24 04:54:10;;;;;;;14.95;8.52;;;2.90;99.90;;;;;;4857345;29;20106;-80
2023/01/24 04:56:36;;;;;;;17.65;8.57;;;2.90;99.90;;;;;;4891325;29;20048;-81
2023/01/24 04:59:02;;;;;;;16.90;9.45;;;2.90;99.90;;;;;;4874704;29;20074;-80
2023/01/24 05:01:27;;;;;;;20.33;9.73;;;4.00;99.90;;;;;;4884059;29;20484;-81
2023/01/24 05:03:58;;;;;;;21.10;10.47;;;3.10;99.90;;;;;;4852773;29;20501;-81
2023/01/24 05:06:26;;;;;;;18.63;9.38;;;3.40;99.90;;;;;;4857674;29;20774;-81
2023/01/24 05:08:53;;;;;;;19.63;9.52;;;2.90;99.90;;;;;;4861619;29;20049;-81
2023/01/24 05:11:18;;;;;;;16.85;8.93;;;2.90;99.90;;;;;;4891672;29;20043;-81
2023/01/24 05:13:44;;;;;;;19.23;9.10;;;4.00;99.90;;;;;;4876743;29;20115;-81
2023/01/24 05:16:10;;;;;;;20.00;9.40;;;3.60;99.90;;;;;;4870482;29;20364;-81
2023/01/24 05:18:35;;;;;;;19.02;9.32;;;3.10;99.90;;;;;;4872185;29;20148;-81
2023/01/24 05:21:10;;;;;;;18.65;8.57;;;2.80;99.90;;;;;;4863966;29;20513;-81
2023/01/24 05:23:36;;;;;;;19.17;9.52;;;3.10;99.90;;;;;;4880644;29;20055;-81
2023/01/24 05:26:02;;;;;;;19.45;9.82;;;2.90;99.90;;;;;;4891200;29;20052;-81
2023/01/24 05:28:29;;;;;;;19.83;9.88;;;2.90;99.90;;;;;;4886642;29;20040;-80
2023/01/24 05:30:59;;;;;;;;;;;4.50;99.90;;;;;;4873822;29;20125;-81
2023/01/24 05:33:24;;;;;;;20.70;9.90;;;2.90;99.90;;;;;;4884107;29;19926;-81
2023/01/24 05:35:57;;;;;;;19.80;9.65;;;2.90;99.90;;;;;;4865965;29;20044;-80
2023/01/24 05:38:23;;;;;;;19.08;9.38;;;2.90;99.90;;;;;;4877778;29;20032;-81
2023/01/24 05:40:48;;;;;;;21.08;10.18;;;2.90;99.90;;;;;;4878210;29;20047;-82
2023/01/24 05:43:14;;;;;;;21.33;10.90;;;2.90;99.90;;;;;;4882165;29;20044;-81
2023/01/24 05:45:40;;;;;;;23.43;11.27;;;2.90;99.90;;;;;;4861472;29;20522;-80
2023/01/24 05:48:05;;;;;;;19.90;10.65;;;3.20;99.90;;;;;;4886186;29;20044;-80
2023/01/24 05:50:31;;;;;;;22.00;11.77;;;3.00;99.90;;;;;;4877645;29;20050;-80
2023/01/24 05:52:57;;;;;;;21.20;10.43;;;3.90;99.90;;;;;;4876094;29;20044;-82
2023/01/24 05:55:22;;;;;;;20.67;11.07;;;2.80;99.90;;;;;;4877616;29;20055;-79
2023/01/24 05:57:48;;;;;;;23.87;12.77;;;3.10;99.90;;;;;;4875088;29;20044;-79
2023/01/24 06:00:14;;;;;;;24.13;11.50;;;2.80;99.90;;;;;;4880351;29;20296;-79
2023/01/24 06:02:40;;;;;;;23.23;12.07;;;2.80;99.90;;;;;;4895616;29;20072;-79
2023/01/24 06:05:06;;;;;;;23.92;12.45;;;3.00;99.90;;;;;;4897100;29;20088;-79
2023/01/24 06:07:32;;;;;;;;;;;2.80;99.90;;;;;;4867860;29;20051;-79
2023/01/24 06:09:57;;;;;;;22.40;11.98;;;4.00;99.90;;;;;;4878649;29;20399;-79
2023/01/24 06:12:23;;;;;;;21.70;11.13;;;2.80;99.90;;;;;;4885485;29;20113;-79
2023/01/24 06:14:49;;;;;;;24.20;12.03;;;2.80;99.90;;;;;;4879137;29;20050;-79
2023/01/24 06:17:14;;;;;;;25.03;12.40;;;3.20;99.90;;;;;;4867867;29;20292;-79
2023/01/24 06:19:40;;;;;;;22.17;10.82;;;4.00;99.90;;;;;;4869606;29;20103;-79
2023/01/24 06:22:21;;;;;;;23.52;11.13;;;2.80;99.90;;;;;;4878484;29;20041;-79
2023/01/24 06:24:47;;;;;;;21.42;10.52;;;2.80;99.90;;;;;;4878804;29;20135;-79
2023/01/24 06:27:13;;;;;;;22.05;11.48;;;2.80;99.90;;;;;;4878192;29;20139;-79
2023/01/24 06:29:39;;;;;;;22.63;11.70;;;2.80;99.90;;;;;;4863021;29;20033;-79
2023/01/24 06:32:49;;;;;;;23.35;10.85;;;2.80;99.90;;;;;;4862768;29;20036;-79
2023/01/24 06:35:15;;;;;;;25.23;12.35;;;2.70;99.90;;;;;;4791367;29;20042;-79
2023/01/24 06:37:50;;;;;;;24.93;12.10;;;2.70;99.90;;;;;;4803875;29;20049;-79
2023/01/24 06:40:22;;;;;;;22.92;11.32;;;2.70;99.90;;;;;;4861183;29;20128;-79
2023/01/24 06:42:49;;;;;;;24.58;11.50;;;2.70;99.90;;;;;;4876772;29;20052;-79
2023/01/24 06:45:14;;;;;;;;;;;2.70;99.90;;;;;;4878355;29;20112;-79
2023/01/24 06:47:41;;;;;;;26.30;11.75;;;2.70;99.90;;;;;;4878435;29;19919;-79
2023/01/24 06:50:08;;;;;;;25.05;11.52;;;2.70;99.90;;;;;;4882409;29;20079;-79
2023/01/24 06:52:34;;;;;;;23.02;12.02;;;2.70;99.90;;;;;;4878760;29;20049;-79
2023/01/24 06:55:00;;;;;;;22.58;11.77;;;2.70;99.90;;;;;;4881197;29;20044;-79
2023/01/24 06:57:26;;;;;;;26.67;13.13;;;4.30;99.90;;;;;;4896862;29;20046;-79
2023/01/24 06:59:52;;;;;;;26.52;12.80;;;3.10;99.90;;;;;;4881472;29;20048;-79
2023/01/24 07:02:17;;;;;;;28.17;13.15;;;2.70;99.90;;;;;;4879964;29;20076;-79
2023/01/24 07:04:43;;;;;;;25.38;12.30;;;2.70;99.90;;;;;;4847317;29;20490;-79
2023/01/24 07:07:09;;;;;;;26.05;12.95;;;2.70;99.90;;;;;;4862288;29;20397;-79
2023/01/24 07:09:34;;;;;;;24.10;12.43;;;3.80;99.90;;;;;;4878306;29;20060;-79
2023/01/24 07:12:00;;;;;;;27.70;13.77;;;2.60;99.90;;;;;;4878146;29;20052;-79
2023/01/24 07:14:26;;;;;;;26.83;12.23;;;3.00;99.90;;;;;;4880636;29;20362;-79
2023/01/24 07:16:52;;;;;;;23.92;12.95;;;2.80;99.90;;;;;;4865821;29;20409;-79
2023/01/24 07:19:26;;;;;;;21.48;11.48;;;2.60;99.90;;;;;;4871957;29;20032;-77
2023/01/24 07:21:54;;;;;;;23.35;11.20;;;2.60;99.90;;;;;;4878251;29;20048;-78
2023/01/24 07:24:22;;;;;;;22.75;11.45;;;2.60;99.90;;;;;;4861113;29;20072;-77
2023/01/24 07:26:50;;;;;;;25.20;11.57;;;2.60;99.90;;;;;;4877721;29;20140;-77
2023/01/24 07:29:18;;;;;;;22.10;11.30;;;2.60;99.90;;;;;;4862105;29;20048;-77
2023/01/24 07:31:43;;;;;;;22.75;11.55;;;4.30;99.90;;;;;;4897821;29;20118;-77
2023/01/24 07:34:09;;;;;;;22.98;11.80;;;3.00;99.90;;;;;;4879220;29;20124;-77
2023/01/24 07:36:35;;;;;;;23.05;12.15;;;2.60;99.90;;;;;;4863828;29;20052;-77
2023/01/24 07:39:01;;;;;;;21.67;10.88;;;2.60;99.90;;;;;;4861323;29;20370;-77
2023/01/24 07:41:27;;;;;;;22.67;12.15;;;2.60;99.90;;;;;;4897533;29;20065;-77
2023/01/24 07:43:53;;;;;;;21.38;11.10;;;3.30;99.90;;;;;;4884743;29;20047;-77
2023/01/24 07:46:20;;;;;;;22.88;11.10;;;2.60;99.90;;;;;;4881980;29;20044;-78
2023/01/24 07:48:46;;;;;;;21.77;10.75;;;3.60;99.90;;;;;;4891928;29;20538;-78
2023/01/24 07:51:11;;;;;;;21.42;10.95;;;3.20;99.90;;;;;;4883963;29;20036;-78
2023/01/24 07:53:37;;;;;;;22.43;11.53;;;2.70;99.90;;;;;;4872642;29;20041;-78
2023/01/24 07:56:04;;;;;;;22.58;11.48;;;2.60;99.90;;;;;;4865682;29;20372;-78
2023/01/24 07:58:29;;;;;;;;;;;2.60;99.90;;;;;;4881590;29;20059;-78
2023/01/24 08:00:55;;;;;;;22.17;11.05;;;2.70;99.90;;;;;;4868116;29;19919;-78
2023/01/24 08:03:21;;;;;;;23.10;11.05;;;2.60;99.90;;;;;;4899327;29;20063;-78
2023/01/24 08:05:46;;;;;;;20.67;11.13;;;2.60;99.90;;;;;;4884226;29;20051;-78
2023/01/24 08:08:12;;;;;;;19.40;11.00;;;2.60;99.90;;;;;;4883844;29;20464;-78
2023/01/24 08:10:38;;;;;;;22.00;11.57;;;2.60;99.90;;;;;;4884196;29;20040;-78
2023/01/24 08:13:04;;;;;;;23.10;10.73;;;2.60;99.90;;;;;;4867917;29;20417;-78
2023/01/24 08:15:29;;;;;;;18.95;10.55;;;2.60;99.90;;;;;;4887483;29;20051;-78
2023/01/24 08:17:55;;;;;;;21.47;11.47;;;2.60;99.90;;;;;;4861020;29;20028;-78
2023/01/24 08:20:21;;;;;;;23.60;12.37;;;2.70;99.90;;;;;;4883314;29;20320;-78
2023/01/24 08:22:47;;;;;;;19.65;11.15;;;2.70;99.90;;;;;;4884049;29;20075;-78
2023/01/24 08:25:13;;;;;;;18.92;10.05;;;4.10;99.90;;;;;;4871393;29;20039;-78
2023/01/24 08:27:42;;;;;;;21.40;11.43;;;2.60;99.90;;;;;;4880543;29;20048;-78
2023/01/24 08:30:10;;;;;;;20.35;10.60;;;2.60;99.90;;;;;;4864727;29;20044;-78
2023/01/24 08:32:36;;;;;;;20.55;11.15;;;2.60;99.90;;;;;;4865195;29;20040;-77
2023/01/24 08:35:03;;;;;;;22.40;11.18;;;2.60;99.90;;;;;;4865148;29;20409;-77
2023/01/24 08:37:29;;;;;;;22.48;11.77;;;2.60;99.90;;;;;;4876373;29;20623;-78
2023/01/24 08:39:56;;;;;;;19.67;11.03;;;3.00;99.90;;;;;;4867712;29;20078;-77
2023/01/24 08:42:23;;;;;;;22.42;11.18;;;2.70;99.90;;;;;;4889543;29;20856;-78
2023/01/24 08:44:49;;;;;;;19.52;10.82;;;2.60;99.90;;;;;;4884052;29;20397;-78
2023/01/24 08:47:14;;;;;;;20.30;10.63;;;2.70;99.90;;;;;;4883327;29;20119;-78
2023/01/24 08:49:40;;;;;;;23.08;11.18;;;2.70;99.90;;;;;;4883299;29;20040;-78
2023/01/24 08:52:06;;;;;;;18.73;10.52;;;2.70;99.90;;;;;;4883263;29;20119;-77
2023/01/24 08:54:32;;;;;;;20.15;10.90;;;3.50;99.90;;;;;;4859707;29;20095;-77
2023/01/24 08:56:58;;;;;;;20.77;11.75;;;3.40;99.90;;;;;;4889543;29;20087;-78
2023/01/24 08:59:24;;;;;;;20.50;10.15;;;2.70;99.90;;;;;;4893905;29;20075;-78
2023/01/24 09:01:50;;;;;;;21.50;11.63;;;3.80;99.90;;;;;;4891273;29;20461;-78
2023/01/24 09:04:16;;;;;;;18.75;10.43;;;2.70;99.90;;;;;;4892440;29;20044;-78
2023/01/24 09:06:42;;;;;;;18.75;10.57;;;2.80;99.90;;;;;;4892434;29;20394;-78
2023/01/24 09:09:07;;;;;;;21.38;11.85;;;3.70;99.90;;;;;;4886776;29;20051;-78
2023/01/24 09:11:33;;;;;;;18.52;10.43;;;2.70;99.90;;;;;;4879628;29;20071;-78
2023/01/24 09:13:59;;;;;;;21.50;11.35;;;2.70;99.90;;;;;;4897194;29;20039;-78
2023/01/24 09:16:27;;;;;;;20.08;10.75;;;2.70;99.90;;;;;;4892105;29;20516;-78
2023/01/24 09:18:55;;;;;;;21.63;11.10;;;2.70;99.90;;;;;;4836693;29;20127;-78
2023/01/24 09:21:21;;;;;;;19.70;11.25;;;2.70;99.90;;;;;;4864836;29;20143;-78
2023/01/24 09:23:47;;;;;;;19.13;9.18;;;2.90;99.90;;;;;;4870135;29;20496;-78
2023/01/24 09:26:13;;;;;;;14.57;8.73;;;2.70;99.90;;;;;;4863878;29;20040;-77
2023/01/24 09:28:39;;;;;;;19.73;8.77;;;2.70;99.90;;;;;;4866818;29;20052;-77
2023/01/24 09:31:07;;;;;;;;;;;3.70;99.90;;;;;;4898603;29;20047;-78
2023/01/24 09:33:33;;;;;;;19.60;9.80;;;2.80;99.90;;;;;;4897935;29;19969;-78
2023/01/24 09:36:01;;;;;;;16.88;8.52;;;3.20;99.90;;;;;;4894094;29;20087;-78
2023/01/24 09:38:30;;;;;;;15.63;7.75;;;4.10;99.90;;;;;;4894377;29;20489;-77
2023/01/24 09:41:04;;;;;;;14.07;7.97;;;2.90;99.90;;;;;;4897351;29;20040;-78
2023/01/24 09:43:44;;;;;;;13.60;7.40;;;2.80;99.90;;;;;;4898184;29;20456;-78
2023/01/24 09:46:45;;;;;;;15.85;8.13;;;3.20;99.90;;;;;;4882975;29;20048;-78
2023/01/24 09:49:22;;;;;;;14.85;7.65;;;2.80;99.90;;;;;;4873528;29;20048;-78
2023/01/24 09:51:52;;;;;;;;;;;2.80;99.90;;;;;;4880014;29;20056;-78
2023/01/24 09:54:37;;;;;;;15.38;7.45;;;2.80;99.90;;;;;;4863170;29;19927;-78
2023/01/24 09:57:19;;;;;;;14.02;7.30;;;2.80;99.90;;;;;;4868577;29;20062;-78
2023/01/24 09:59:52;;;;;;;16.13;7.90;;;2.80;99.90;;;;;;4875159;29;20044;-78
2023/01/24 10:02:20;;;;;;;12.73;7.10;;;2.80;99.90;;;;;;4888469;29;20040;-78
2023/01/24 10:04:48;;;;;;;16.63;7.93;;;2.80;99.90;;;;;;4880129;29;20472;-78
2023/01/24 10:07:49;;;;;;;16.00;7.97;;;2.80;99.90;;;;;;4897746;29;20047;-78
2023/01/24 10:10:42;;;;;;;17.20;7.30;;;2.90;99.90;;;;;;4870855;29;20044;-78
2023/01/24 10:13:11;;;;;;;14.77;7.00;;;2.90;99.90;;;;;;4897703;29;20036;-77
2023/01/24 10:16:09;;;;;;;14.95;7.63;;;2.90;99.90;;;;;;4882285;29;20128;-78
2023/01/24 10:18:57;;;;;;;18.00;7.40;;;2.90;99.90;;;;;;4897061;29;20040;-77
2023/01/24 10:21:39;;;;;;;13.32;6.68;;;2.90;99.90;;;;;;4882831;29;20104;-79
2023/01/24 10:24:14;;;;;;;17.35;7.45;;;2.90;99.90;;;;;;4881665;29;20142;-78
2023/01/24 10:26:50;;;;;;;12.32;6.55;;;2.90;99.90;;;;;;4897458;29;20397;-79
2023/01/24 10:29:25;;;;;;;14.35;7.90;;;2.90;99.90;;;;;;4862099;29;20047;-79
2023/01/24 10:32:04;;;;;;;13.82;7.30;;;2.90;99.90;;;;;;4871052;29;20047;-79
2023/01/24 10:34:58;;;;;;;14.45;7.25;;;2.90;99.90;;;;;;4893443;29;20057;-79
2023/01/24 10:37:28;;;;;;;14.43;8.20;;;2.90;99.90;;;;;;4861623;29;20076;-79
2023/01/24 10:39:54;;;;;;;16.42;7.80;;;3.40;99.90;;;;;;4862973;29;20044;-79
2023/01/24 10:42:32;;;;;;;14.88;7.20;;;2.90;99.90;;;;;;4856424;29;20051;-79
2023/01/24 10:45:19;;;;;;;14.48;7.55;;;2.90;99.90;;;;;;4885450;29;20051;-79
2023/01/24 10:47:56;;;;;;;15.95;7.50;;;2.90;99.90;;;;;;4869415;29;20510;-79
2023/01/24 10:50:23;;;;;;;13.35;6.72;;;3.00;99.90;;;;;;4862730;29;20374;-79
2023/01/24 10:52:49;;;;;;;13.30;6.80;;;2.90;99.90;;;;;;4871300;29;20127;-79
2023/01/24 10:55:30;;;;;;;14.07;7.85;;;2.90;99.90;;;;;;4877224;29;20507;-79
2023/01/24 10:57:56;;;;;;;16.35;7.50;;;2.90;99.90;;;;;;4883824;29;20556;-79
2023/01/24 11:00:27;;;;;;;16.38;7.80;;;2.90;99.90;;;;;;4869427;29;20040;-78
2023/01/24 11:02:56;;;;;;;15.50;7.07;;;2.90;99.90;;;;;;4863508;29;20048;-79
2023/01/24 11:05:23;;;;;;;13.55;7.10;;;2.90;99.90;;;;;;4879873;29;20059;-78
2023/01/24 11:07:52;;;;;;;14.82;6.72;;;3.00;99.90;;;;;;4881322;29;20045;-79
2023/01/24 11:10:24;;;;;;;16.73;6.97;;;3.00;99.90;;;;;;4876881;29;20503;-79
2023/01/24 11:12:57;;;;;;;15.50;7.00;;;2.90;99.90;;;;;;4894363;29;20416;-79
2023/01/24 11:15:30;;;;;;;14.60;7.38;;;3.00;99.90;;;;;;4894297;29;20039;-79
2023/01/24 11:18:17;;;;;;;15.45;7.70;;;3.00;99.90;;;;;;4893198;29;20500;-79
2023/01/24 11:20:44;;;;;;;14.75;7.18;;;3.00;99.90;;;;;;4862886;29;20494;-79
2023/01/24 11:23:21;;;;;;;13.93;6.82;;;3.00;99.90;;;;;;4884491;29;20513;-79
2023/01/24 11:26:02;;;;;;;12.60;6.50;;;3.10;99.90;;;;;;4881371;29;20051;-79
2023/01/24 11:28:37;;;;;;;14.98;7.47;;;3.00;99.90;;;;;;4896591;29;20040;-79
2023/01/24 11:31:10;;;;;;;17.58;7.53;;;3.10;99.90;;;;;;4896478;29;20044;-79
2023/01/24 11:34:14;;;;;;;14.27;7.05;;;3.10;99.90;;;;;;4887515;29;20490;-79
2023/01/24 11:36:53;;;;;;;15.07;7.15;;;3.10;99.90;;;;;;4877575;29;20044;-79
2023/01/24 11:39:37;;;;;;;16.55;7.40;;;3.10;99.90;;;;;;4891505;29;20094;-79
2023/01/24 11:42:24;;;;;;;13.60;6.97;;;3.10;99.90;;;;;;4894995;29;20032;-79
2023/01/24 11:45:16;;;;;;;11.38;6.03;;;3.10;99.90;;;;;;4896506;29;20055;-79
2023/01/24 11:48:06;;;;;;;14.10;7.45;;;3.10;99.90;;;;;;4873958;29;20561;-79
2023/01/24 11:50:39;;;;;;;15.90;7.70;;;3.10;99.90;;;;;;4861950;29;20048;-79
2023/01/24 11:53:40;;;;;;;15.95;7.82;;;3.50;99.90;;;;;;4882393;29;20045;-79
2023/01/24 11:56:29;;;;;;;15.30;7.43;;;3.10;99.90;;;;;;4881106;29;21370;-79
2023/01/24 11:59:07;;;;;;;14.95;7.18;;;3.20;99.90;;;;;;4885885;29;20040;-79
2023/01/24 12:02:01;;;;;;;16.58;7.97;;;3.20;99.90;;;;;;4867776;29;20072;-79
2023/01/24 12:04:43;;;;;;;14.73;7.10;;;3.20;99.90;;;;;;4895722;29;20082;-79
2023/01/24 12:07:23;;;;;;;14.98;7.50;;;3.20;99.90;;;;;;4896667;29;20048;-79
2023/01/24 12:10:06;;;;;;;14.27;7.40;;;3.20;99.90;;;;;;4880625;29;20044;-79
2023/01/24 12:12:39;;;;;;;14.85;7.57;;;3.20;99.90;;;;;;4895436;29;20471;-79
2023/01/24 12:15:29;;;;;;;15.30;8.25;;;3.20;99.90;;;;;;4896035;29;20036;-79
2023/01/24 12:18:38;;;;;;;15.90;8.10;;;3.20;99.90;;;;;;4895844;29;20501;-79
2023/01/24 12:21:09;;;;;;;15.95;8.45;;;3.20;99.90;;;;;;4865083;29;20080;-79
2023/01/24 12:23:56;;;;;;;16.55;7.85;;;3.20;99.90;;;;;;4880568;29;20499;-79
2023/01/24 12:26:36;;;;;;;17.42;7.72;;;3.20;99.90;;;;;;4893657;29;20040;-79
2023/01/24 12:29:15;;;;;;;17.20;8.80;;;3.20;99.90;;;;;;4899514;29;20083;-79
2023/01/24 12:31:51;;;;;;;13.73;7.28;;;3.20;99.90;;;;;;4899166;29;20044;-79
2023/01/24 12:34:43;;;;;;;16.42;7.70;;;3.20;99.90;;;;;;4893420;29;20040;-79
2023/01/24 12:37:40;;;;;;;17.13;8.55;;;3.10;99.90;;;;;;4880620;29;20047;-79
2023/01/24 12:40:11;;;;;;;17.60;8.68;;;3.10;99.90;;;;;;4880642;29;20049;-79
2023/01/24 12:43:03;;;;;;;16.80;8.30;;;3.10;99.90;;;;;;4864495;29;20044;-79
2023/01/24 12:45:38;;;;;;;18.38;8.32;;;3.20;99.90;;;;;;4864594;29;20036;-79
2023/01/24 12:48:33;;;;;;;16.98;9.10;;;3.20;99.90;;;;;;4880645;29;20044;-79
2023/01/24 12:51:13;;;;;;;15.68;7.70;;;3.20;99.90;;;;;;4848473;29;20401;-79
2023/01/24 12:53:50;;;;;;;15.77;8.15;;;3.20;99.90;;;;;;4882796;29;20075;-79
2023/01/24 12:56:42;;;;;;;;;;;3.90;99.90;;;;;;4885146;29;20085;-79
2023/01/24 12:59:10;;;;;;;16.73;8.13;;;3.10;99.90;;;;;;4873497;29;19966;-79
2023/01/24 13:01:57;;;;;;;13.82;7.80;;;3.10;99.90;;;;;;4864106;29;20135;-79
2023/01/24 13:05:15;;;;;;;15.38;7.13;;;3.10;99.90;;;;;;4880080;29;20503;-79
2023/01/24 13:08:20;;;;;;;17.60;8.23;;;3.10;99.90;;;;;;4861985;29;20045;-79
2023/01/24 13:10:54;;;;;;;15.93;7.38;;;3.20;99.90;;;;;;4863524;29;20542;-79
2023/01/24 13:13:24;;;;;;;14.88;8.00;;;3.10;99.90;;;;;;4866823;29;20127;-79
2023/01/24 13:16:04;;;;;;;15.57;8.38;;;3.20;99.90;;;;;;4889993;29;20147;-79
2023/01/24 13:18:50;;;;;;;17.50;8.18;;;3.10;99.90;;;;;;4863914;29;20088;-79
2023/01/24 13:21:32;;;;;;;17.58;8.77;;;3.10;99.90;;;;;;4896193;29;20126;-79
2023/01/24 13:24:32;;;;;;;18.42;9.73;;;3.10;99.90;;;;;;4879826;29;20048;-79
2023/01/24 13:27:23;;;;;;;15.93;8.05;;;3.10;99.90;;;;;;4879523;29;20052;-79
2023/01/24 13:30:20;;;;;;;17.40;9.00;;;3.10;99.90;;;;;;4878176;29;20045;-79
2023/01/24 13:32:48;;;;;;;16.27;8.32;;;3.10;99.90;;;;;;4876823;29;20051;-79
2023/01/24 13:35:23;;;;;;;16.35;7.75;;;3.10;99.90;;;;;;4879851;29;20435;-79
2023/01/24 13:38:01;;;;;;;18.88;9.30;;;3.10;99.90;;;;;;4879112;29;20041;-79
2023/01/24 13:40:34;;;;;;;18.27;7.72;;;3.10;99.90;;;;;;4884079;29;20381;-79
2023/01/24 13:43:24;;;;;;;16.75;8.00;;;3.20;99.90;;;;;;4871440;29;20044;-79